Time;durP1;ratioP1;P1;durP2;ratioP2;P2;SDS_P1;SDS_P2;PMS_P1;PMS_P2;Temp;Humidity;BMP_temperature;BMP_pressure;BME280_temperature;BME280_humidity;BME280_pressure;Samples;Min_cycle;Max_cycle;Signal;HPM_P1;HPM_P2
2023/05/15 00:00:05;;;;;;;19.67;12.35;;;;;;;17.13;56.15;101476.06;5049563;28;20056;-64
2023/05/15 00:02:34;;;;;;;18.45;12.40;;;;;;;17.10;56.24;101476.56;5055630;28;20144;-63
2023/05/15 00:05:03;;;;;;;16.25;11.27;;;;;;;17.06;56.09;101472.69;5052409;28;20070;-60
2023/05/15 00:07:31;;;;;;;20.42;11.43;;;;;;;16.97;56.16;101457.06;5049107;28;20045;-64
2023/05/15 00:09:59;;;;;;;14.98;11.60;;;;;;;17.03;56.16;101475.91;5046590;28;20081;-64
2023/05/15 00:12:27;;;;;;;18.40;11.18;;;;;;;16.94;56.13;101461.09;5053395;28;20049;-64
2023/05/15 00:14:55;;;;;;;15.05;9.95;;;;;;;17.00;56.13;101472.88;5058283;28;20353;-64
2023/05/15 00:17:23;;;;;;;15.40;10.70;;;;;;;16.99;56.10;101463.91;5051463;28;20049;-64
2023/05/15 00:19:56;;;;;;;13.13;10.57;;;;;;;16.97;56.07;101459.78;5047889;28;20075;-63
2023/05/15 00:22:24;;;;;;;14.65;9.70;;;;;;;16.95;56.10;101457.31;5042871;28;20041;-63
2023/05/15 00:24:53;;;;;;;15.38;10.05;;;;;;;16.94;56.16;101454.84;5047123;28;20053;-63
2023/05/15 00:27:21;;;;;;;16.77;11.85;;;;;;;16.91;56.00;101454.28;5051843;28;20045;-65
2023/05/15 00:29:48;;;;;;;16.27;9.98;;;;;;;16.90;56.13;101449.91;5041871;28;20514;-63
2023/05/15 00:32:16;;;;;;;18.90;10.95;;;;;;;16.88;56.14;101456.66;5052904;28;20065;-64
2023/05/15 00:34:44;;;;;;;15.23;10.95;;;;;;;16.85;55.96;101444.41;5052787;28;20049;-62
2023/05/15 00:37:13;;;;;;;16.08;10.38;;;;;;;16.82;56.11;101450.34;5056800;28;20049;-63
2023/05/15 00:39:41;;;;;;;15.15;11.02;;;;;;;16.80;56.09;101444.34;5052967;28;20045;-62
2023/05/15 00:42:10;;;;;;;19.60;11.35;;;;;;;16.73;55.93;101437.44;5050899;28;20069;-65
2023/05/15 00:44:40;;;;;;;17.92;11.02;;;;;;;16.75;56.03;101451.59;5048255;28;20073;-64
2023/05/15 00:47:10;;;;;;;18.50;10.75;;;;;;;16.64;55.89;101433.47;5044038;28;20053;-61
2023/05/15 00:49:39;;;;;;;22.35;12.07;;;;;;;16.70;55.94;101446.06;5056416;28;20044;-64
2023/05/15 00:52:07;;;;;;;14.93;10.73;;;;;;;16.67;56.02;101444.69;5044137;28;20052;-64
2023/05/15 00:54:36;;;;;;;16.63;11.07;;;;;;;16.66;56.03;101442.22;5045544;28;20239;-65
2023/05/15 00:57:06;;;;;;;18.02;11.27;;;;;;;16.64;56.11;101431.56;5048595;28;20049;-64
2023/05/15 00:59:34;;;;;;;17.42;11.45;;;;;;;16.62;56.01;101436.44;5057800;28;20050;-64
2023/05/15 01:02:02;;;;;;;16.73;11.20;;;;;;;16.60;56.08;101433.13;5060463;28;20720;-64
2023/05/15 01:04:31;;;;;;;18.85;11.13;;;;;;;16.57;55.96;101426.31;5061774;28;20136;-64
2023/05/15 01:06:59;;;;;;;18.83;12.02;;;;;;;16.57;55.97;101431.75;5058289;28;20467;-64
2023/05/15 01:09:30;;;;;;;15.18;11.25;;;;;;;16.58;55.84;101432.56;5058586;28;20572;-63
2023/05/15 01:12:02;;;;;;;13.10;10.27;;;;;;;16.56;56.06;101430.09;5055305;28;20044;-64
2023/05/15 01:14:30;;;;;;;14.82;11.02;;;;;;;16.55;55.55;101424.91;5054557;28;20117;-65
2023/05/15 01:16:57;;;;;;;17.05;12.32;;;;;;;16.55;55.92;101430.34;5055353;28;20049;-59
2023/05/15 01:19:26;;;;;;;17.20;10.38;;;;;;;16.52;55.84;101423.53;5056573;28;20041;-64
2023/05/15 01:22:16;;;;;;;18.83;11.93;;;;;;;16.51;55.92;101429.19;5050226;28;20049;-64
2023/05/15 01:25:11;;;;;;;18.17;10.45;;;;;;;16.51;55.84;101421.06;5056123;28;20107;-64
2023/05/15 01:27:45;;;;;;;15.85;11.63;;;;;;;16.48;55.73;101422.38;5043115;28;20049;-63
2023/05/15 01:30:19;;;;;;;19.38;12.65;;;;;;;16.45;55.74;101424.75;5051433;28;20135;-64
2023/05/15 01:32:52;;;;;;;22.75;13.88;;;;;;;16.42;55.91;101423.34;5060552;28;20045;-64
2023/05/15 01:35:23;;;;;;;19.30;13.48;;;;;;;16.39;55.80;101423.03;5053973;28;20057;-61
2023/05/15 01:38:00;;;;;;;19.95;13.93;;;;;;;16.30;55.83;101409.03;5053988;28;20041;-63
2023/05/15 01:40:29;;;;;;;16.52;11.80;;;;;;;16.36;55.99;101416.19;5056913;28;20036;-65
2023/05/15 01:43:05;;;;;;;18.23;12.07;;;;;;;16.35;55.88;101406.41;5053123;28;20109;-63
2023/05/15 01:45:35;;;;;;;17.10;12.75;;;;;;;16.34;55.96;101412.91;5061752;28;20056;-64
2023/05/15 01:48:08;;;;;;;15.45;12.68;;;;;;;16.33;55.91;101411.28;5059319;28;20085;-64
2023/05/15 01:50:39;;;;;;;16.40;12.32;;;;;;;16.33;55.75;101418.59;5060448;28;20045;-64
2023/05/15 01:53:09;;;;;;;19.20;12.30;;;;;;;16.24;55.87;101407.31;5056558;28;20052;-64
2023/05/15 01:55:38;;;;;;;18.52;12.20;;;;;;;16.28;55.76;101403.88;5051586;28;20059;-63
2023/05/15 01:58:09;;;;;;;17.88;12.70;;;;;;;16.28;56.01;101412.00;5051247;28;20396;-63
2023/05/15 02:00:39;;;;;;;16.02;12.43;;;;;;;16.14;56.07;101393.59;5049389;28;20048;-64
2023/05/15 02:03:06;;;;;;;17.45;12.63;;;;;;;16.26;55.87;101407.91;5048595;28;20069;-64
2023/05/15 02:05:35;;;;;;;20.88;12.63;;;;;;;16.25;56.11;101414.38;5056812;28;20049;-63
2023/05/15 02:08:04;;;;;;;15.85;11.98;;;;;;;16.22;55.88;101410.28;5051358;28;20057;-63
2023/05/15 02:10:33;;;;;;;17.08;12.15;;;;;;;16.18;55.88;101403.69;5060469;28;20084;-63
2023/05/15 02:13:01;;;;;;;17.27;12.73;;;;;;;16.20;55.75;101408.88;5056057;28;20406;-64
2023/05/15 02:15:31;;;;;;;15.90;11.63;;;;;;;16.19;55.99;101402.63;5052299;28;20559;-63
2023/05/15 02:17:59;;;;;;;15.57;11.20;;;;;;;16.16;55.71;101405.84;5057677;28;20048;-64
2023/05/15 02:20:27;;;;;;;20.58;12.85;;;;;;;16.10;56.05;101389.72;5046505;28;20037;-60
2023/05/15 02:22:54;;;;;;;15.63;11.68;;;;;;;16.07;55.54;101388.31;5048438;28;20053;-64
2023/05/15 02:25:34;;;;;;;20.02;12.65;;;;;;;16.14;55.93;101410.69;5042327;28;20069;-64
2023/05/15 02:28:06;;;;;;;14.88;12.00;;;;;;;16.12;55.84;101404.69;5045577;28;20108;-65
2023/05/15 02:30:41;;;;;;;18.23;12.48;;;;;;;16.02;56.00;101395.53;5053945;28;20075;-63
2023/05/15 02:33:19;;;;;;;15.98;12.77;;;;;;;16.04;55.90;101396.94;5053018;28;20041;-63
2023/05/15 02:35:51;;;;;;;18.17;12.32;;;;;;;16.09;55.97;101401.63;5055875;28;20069;-63
2023/05/15 02:38:25;;;;;;;15.68;11.45;;;;;;;16.08;56.05;101403.53;5051702;28;20179;-64
2023/05/15 02:40:56;;;;;;;19.45;12.13;;;;;;;16.06;56.02;101400.22;5048641;28;20515;-63
2023/05/15 02:43:26;;;;;;;16.15;11.60;;;;;;;16.04;56.08;101405.06;5048975;28;20049;-64
2023/05/15 02:45:56;;;;;;;18.52;12.60;;;;;;;16.03;56.11;101414.28;5045871;28;20049;-59
2023/05/15 02:48:25;;;;;;;16.67;12.35;;;;;;;16.01;56.12;101419.13;5045005;28;20090;-64
2023/05/15 02:50:53;;;;;;;15.93;12.32;;;;;;;15.99;56.09;101412.28;5052498;28;20713;-63
2023/05/15 02:53:22;;;;;;;17.88;12.50;;;;;;;15.98;55.99;101407.94;5056828;28;20044;-64
2023/05/15 02:55:49;;;;;;;19.88;12.90;;;;;;;15.97;56.07;101417.13;5056438;28;20231;-63
2023/05/15 02:58:18;;;;;;;17.83;12.85;;;;;;;15.95;56.02;101423.63;5050013;28;20067;-65
2023/05/15 03:00:46;;;;;;;21.38;14.93;;;;;;;15.93;56.00;101419.50;5053546;28;20101;-64
2023/05/15 03:03:15;;;;;;;21.58;13.85;;;;;;;15.91;56.22;101416.22;5050576;28;20041;-63
2023/05/15 03:05:43;;;;;;;17.38;13.13;;;;;;;15.89;56.14;101410.22;5053556;28;20056;-64
2023/05/15 03:08:11;;;;;;;20.10;13.43;;;;;;;15.88;56.06;101408.56;5055523;28;20076;-63
2023/05/15 03:10:39;;;;;;;19.95;14.70;;;;;;;15.86;56.25;101399.88;5059165;28;20095;-63
2023/05/15 03:13:06;;;;;;;21.10;14.07;;;;;;;15.85;56.02;101399.03;5059099;28;20120;-63
2023/05/15 03:15:34;;;;;;;18.05;13.60;;;;;;;15.83;56.10;101395.75;5057301;28;20502;-63
2023/05/15 03:18:02;;;;;;;18.48;13.15;;;;;;;15.82;56.21;101394.09;5049392;28;20116;-60
2023/05/15 03:20:31;;;;;;;17.80;13.05;;;;;;;15.80;55.99;101398.13;5047765;28;20049;-63
2023/05/15 03:22:59;;;;;;;23.13;15.95;;;;;;;15.77;56.04;101396.72;5047035;28;20049;-62
2023/05/15 03:25:27;;;;;;;22.63;15.40;;;;;;;15.76;56.05;101402.38;5048618;28;20041;-63
2023/05/15 03:27:55;;;;;;;24.98;16.00;;;;;;;15.75;56.11;101403.47;5054161;28;20116;-64
2023/05/15 03:30:23;;;;;;;23.63;15.65;;;;;;;15.72;56.12;101402.06;5055709;28;20624;-61
2023/05/15 03:32:50;;;;;;;18.75;15.43;;;;;;;15.71;56.17;101400.41;5056731;28;20063;-63
2023/05/15 03:35:18;;;;;;;26.48;17.23;;;;;;;15.69;56.01;101407.97;5056192;28;20117;-63
2023/05/15 03:37:47;;;;;;;20.38;16.15;;;;;;;15.68;55.96;101410.91;5052138;28;20094;-64
2023/05/15 03:40:15;;;;;;;21.25;16.17;;;;;;;15.65;55.89;101406.78;5050718;28;20049;-65
2023/05/15 03:42:43;;;;;;;24.98;17.83;;;;;;;15.64;56.17;101405.16;5056033;28;20094;-63
2023/05/15 03:45:11;;;;;;;25.23;17.95;;;;;;;15.61;56.00;101397.50;5050783;28;20049;-60
2023/05/15 03:47:39;;;;;;;29.70;16.75;;;;;;;15.59;55.99;101392.34;5055016;28;20128;-63
2023/05/15 03:50:07;;;;;;;25.45;16.42;;;;;;;15.59;56.14;101396.94;5053364;28;20431;-63
2023/05/15 03:52:35;;;;;;;27.17;18.83;;;;;;;15.56;55.96;101386.56;5065946;28;20128;-63
2023/05/15 03:55:05;;;;;;;26.20;19.13;;;;;;;15.53;56.12;101387.88;5051540;28;20045;-58
2023/05/15 03:57:34;;;;;;;25.60;17.77;;;;;;;15.52;56.08;101388.94;5050920;28;20064;-64
2023/05/15 04:00:08;;;;;;;26.02;18.25;;;;;;;15.51;56.09;101389.19;5057732;28;20047;-62
2023/05/15 04:02:36;;;;;;;26.52;18.25;;;;;;;15.48;56.14;101387.78;5052075;28;20041;-64
2023/05/15 04:05:05;;;;;;;24.17;17.58;;;;;;;15.48;55.98;101386.94;5051554;28;20130;-63
2023/05/15 04:07:34;;;;;;;25.52;18.45;;;;;;;15.46;56.05;101386.38;5052692;28;20054;-64
2023/05/15 04:10:04;;;;;;;25.48;18.20;;;;;;;15.45;56.13;101390.13;5056886;28;20045;-64
2023/05/15 04:12:33;;;;;;;24.40;18.63;;;;;;;15.45;56.21;101382.00;5057028;28;20049;-64
2023/05/15 04:15:14;;;;;;;25.10;18.23;;;;;;;15.44;56.22;101378.47;5052529;28;20127;-63
2023/05/15 04:17:42;;;;;;;23.10;17.15;;;;;;;15.43;56.16;101384.13;5047848;28;20107;-64
2023/05/15 04:20:13;;;;;;;26.10;17.80;;;;;;;15.42;56.11;101388.75;5050366;28;20077;-64
2023/05/15 04:22:41;;;;;;;27.25;18.35;;;;;;;15.40;55.88;101382.75;5048787;28;20109;-64
2023/05/15 04:25:13;;;;;;;29.52;18.52;;;;;;;15.39;56.32;101393.81;5059092;28;20060;-64
2023/05/15 04:27:42;;;;;;;28.83;18.05;;;;;;;15.38;56.03;101397.59;5048140;28;20048;-63
2023/05/15 04:30:11;;;;;;;23.13;17.05;;;;;;;15.36;56.03;101397.00;5052451;28;20064;-64
2023/05/15 04:32:40;;;;;;;23.05;17.67;;;;;;;15.35;56.14;101400.78;5056469;28;20061;-64
2023/05/15 04:35:11;;;;;;;27.17;18.05;;;;;;;15.34;55.86;101396.41;5049608;28;20368;-66
2023/05/15 04:37:39;;;;;;;24.15;16.88;;;;;;;15.33;56.19;101402.91;5052668;28;20049;-62
2023/05/15 04:40:11;;;;;;;27.58;18.60;;;;;;;15.32;56.21;101409.38;5050537;28;20056;-64
2023/05/15 04:42:38;;;;;;;30.88;20.23;;;;;;;15.29;56.26;101408.78;5053698;28;20325;-63
2023/05/15 04:45:08;;;;;;;27.63;18.88;;;;;;;15.28;56.42;101411.75;5040118;28;20478;-64
2023/05/15 04:47:36;;;;;;;31.10;20.55;;;;;;;15.28;56.35;101419.88;5048580;28;20789;-63
2023/05/15 04:50:05;;;;;;;29.35;20.48;;;;;;;15.25;56.32;101418.44;5055319;28;20053;-63
2023/05/15 04:52:33;;;;;;;25.98;20.17;;;;;;;15.24;56.24;101422.22;5049269;28;20139;-63
2023/05/15 04:55:01;;;;;;;25.40;19.33;;;;;;;15.22;56.52;101429.75;5045906;28;20687;-63
2023/05/15 04:57:30;;;;;;;27.40;19.85;;;;;;;15.22;56.45;101423.53;5057216;28;20076;-64
2023/05/15 05:00:01;;;;;;;28.02;19.48;;;;;;;15.21;56.65;101421.88;5052005;28;20045;-61
2023/05/15 05:02:29;;;;;;;30.33;19.42;;;;;;;15.11;56.49;101411.66;5051429;28;20044;-62
2023/05/15 05:04:57;;;;;;;26.63;19.67;;;;;;;15.20;56.29;101420.22;5049489;28;20056;-60
2023/05/15 05:07:25;;;;;;;26.25;21.08;;;;;;;15.19;56.48;101424.00;5047773;28;20080;-63
2023/05/15 05:09:52;;;;;;;26.75;20.80;;;;;;;15.17;56.64;101418.00;5054675;28;20052;-65
2023/05/15 05:12:20;;;;;;;29.55;21.42;;;;;;;15.15;56.87;101428.25;5052455;28;20041;-66
2023/05/15 05:14:49;;;;;;;26.58;20.88;;;;;;;15.14;56.68;101430.13;5053590;28;20073;-63
2023/05/15 05:17:19;;;;;;;33.58;23.75;;;;;;;15.13;56.97;101433.06;5043425;28;20129;-62
2023/05/15 05:19:47;;;;;;;30.00;22.08;;;;;;;15.11;56.92;101438.72;5055905;28;20261;-64
2023/05/15 05:22:15;;;;;;;32.13;22.25;;;;;;;15.11;56.89;101438.72;5057407;28;20144;-65
2023/05/15 05:24:43;;;;;;;33.50;23.42;;;;;;;15.09;56.92;101445.44;5050287;28;20149;-65
2023/05/15 05:27:11;;;;;;;30.23;23.38;;;;;;;15.05;57.21;101442.38;5051148;28;20099;-64
2023/05/15 05:29:39;;;;;;;39.10;27.50;;;;;;;15.02;57.27;101442.84;5049585;28;20349;-69
2023/05/15 05:32:09;;;;;;;39.50;26.88;;;;;;;14.99;57.71;101440.63;5044468;28;20103;-66
2023/05/15 05:34:37;;;;;;;43.13;27.42;;;;;;;14.97;57.57;101440.03;5049705;28;20103;-65
2023/05/15 05:37:05;;;;;;;42.58;27.50;;;;;;;14.88;57.93;101428.75;5049476;28;20092;-65
2023/05/15 05:39:33;;;;;;;42.47;28.40;;;;;;;14.94;57.87;101448.63;5049710;28;20060;-64
2023/05/15 05:42:00;;;;;;;43.70;30.67;;;;;;;14.91;58.60;101458.03;5041407;28;20113;-62
2023/05/15 05:44:28;;;;;;;42.13;28.55;;;;;;;14.87;58.31;101458.75;4693498;28;9999838;-62
2023/05/15 05:46:56;;;;;;;47.80;32.75;;;;;;;14.85;58.94;101458.16;5047133;28;20558;-63
2023/05/15 05:49:26;;;;;;;48.85;30.25;;;;;;;14.81;58.44;101446.97;5045739;28;20057;-63
2023/05/15 05:51:54;;;;;;;47.80;31.17;;;;;;;14.80;58.85;101452.63;5049866;28;20075;-64
2023/05/15 05:54:22;;;;;;;49.92;30.90;;;;;;;14.77;58.61;101456.63;5044243;28;20049;-64
2023/05/15 05:56:50;;;;;;;53.72;32.53;;;;;;;14.75;59.23;101453.31;5052749;28;20156;-62
2023/05/15 05:59:18;;;;;;;47.50;31.13;;;;;;;14.76;59.02;101456.84;5052282;28;20053;-64
2023/05/15 06:01:47;;;;;;;46.50;31.15;;;;;;;14.75;58.78;101460.63;5047661;28;20153;-64
2023/05/15 06:04:15;;;;;;;46.70;31.27;;;;;;;14.75;59.09;101463.31;5060666;28;20049;-64
2023/05/15 06:06:46;;;;;;;49.97;33.47;;;;;;;14.73;59.10;101457.31;5055238;28;20085;-63
2023/05/15 06:09:14;;;;;;;46.72;32.60;;;;;;;14.63;58.85;101438.97;5058657;28;20140;-65
2023/05/15 06:11:42;;;;;;;48.28;30.83;;;;;;;14.74;58.66;101456.28;5058416;28;20107;-67
2023/05/15 06:14:10;;;;;;;45.50;30.08;;;;;;;14.73;58.79;101460.84;5052242;28;20246;-64
2023/05/15 06:16:37;;;;;;;46.22;30.27;;;;;;;14.74;58.66;101465.22;5057018;28;20045;-65
2023/05/15 06:19:06;;;;;;;52.70;32.47;;;;;;;14.70;58.91;101453.22;5045703;28;20058;-67
2023/05/15 06:21:33;;;;;;;63.67;33.15;;;;;;;14.71;58.80;101462.97;5048499;28;20045;-66
2023/05/15 06:24:03;;;;;;;44.67;30.33;;;;;;;14.71;58.39;101460.28;5058666;28;20045;-65
2023/05/15 06:26:31;;;;;;;47.08;30.58;;;;;;;14.71;58.80;101462.16;5055665;28;20048;-66
2023/05/15 06:28:59;;;;;;;39.83;29.13;;;;;;;14.72;58.54;101466.50;5053305;28;20323;-64
2023/05/15 06:31:27;;;;;;;42.42;29.83;;;;;;;14.73;58.52;101458.16;5054650;28;20584;-65
2023/05/15 06:33:55;;;;;;;44.90;31.23;;;;;;;14.74;58.51;101457.09;5048782;28;20041;-66
2023/05/15 06:36:22;;;;;;;41.17;29.33;;;;;;;14.74;58.44;101454.38;5055458;28;20053;-66
2023/05/15 06:38:50;;;;;;;40.22;29.20;;;;;;;14.73;58.09;101454.63;5059313;28;20466;-66
2023/05/15 06:41:20;;;;;;;39.33;28.13;;;;;;;14.72;58.02;101455.69;5057932;28;20088;-66
2023/05/15 06:43:48;;;;;;;42.80;28.17;;;;;;;14.69;58.52;101453.44;5056979;28;20522;-66
2023/05/15 06:46:17;;;;;;;40.08;28.20;;;;;;;14.72;58.21;101455.69;5053331;28;20112;-66
2023/05/15 06:48:47;;;;;;;37.70;25.33;;;;;;;14.66;58.14;101446.63;5050768;28;20049;-66
2023/05/15 06:51:14;;;;;;;42.33;27.13;;;;;;;14.77;58.11;101458.50;5046871;28;20044;-66
2023/05/15 06:53:42;;;;;;;37.58;25.65;;;;;;;14.77;58.05;101456.63;5057428;28;20087;-65
2023/05/15 06:56:10;;;;;;;36.83;26.35;;;;;;;14.78;58.12;101454.75;5054914;28;20060;-65
2023/05/15 06:58:39;;;;;;;39.65;28.10;;;;;;;14.78;58.23;101460.16;5057811;28;20049;-66
2023/05/15 07:01:08;;;;;;;38.45;27.15;;;;;;;14.78;58.09;101455.56;5056380;28;20060;-68
2023/05/15 07:03:37;;;;;;;34.75;26.27;;;;;;;14.79;57.95;101457.22;5058404;28;20110;-66
2023/05/15 07:06:05;;;;;;;35.88;25.80;;;;;;;14.83;58.14;101460.28;5050301;28;20046;-66
2023/05/15 07:08:33;;;;;;;36.30;25.08;;;;;;;14.83;58.27;101461.09;5051331;28;20057;-66
2023/05/15 07:11:01;;;;;;;31.45;24.75;;;;;;;14.84;58.07;101453.81;5051137;28;20049;-66
2023/05/15 07:13:28;;;;;;;34.38;24.75;;;;;;;14.85;58.17;101456.28;5050056;28;20037;-66
2023/05/15 07:15:58;;;;;;;36.53;25.15;;;;;;;14.86;58.00;101459.81;5057165;28;20091;-67
2023/05/15 07:18:25;;;;;;;35.80;26.45;;;;;;;14.87;57.82;101458.75;5056708;28;20057;-66
2023/05/15 07:20:54;;;;;;;34.97;25.30;;;;;;;14.87;58.21;101454.16;5054277;28;20048;-66
2023/05/15 07:23:21;;;;;;;32.17;24.35;;;;;;;14.89;58.15;101454.75;5047235;28;20590;-65
2023/05/15 07:25:49;;;;;;;33.38;24.17;;;;;;;14.91;58.02;101458.03;5054865;28;20048;-66
2023/05/15 07:28:17;;;;;;;34.90;25.02;;;;;;;14.91;57.89;101468.03;5053164;28;20076;-65
2023/05/15 07:30:45;;;;;;;35.45;26.08;;;;;;;14.92;57.94;101459.69;5056292;28;20104;-67
2023/05/15 07:33:14;;;;;;;32.20;23.90;;;;;;;14.92;57.68;101454.28;5054759;28;20045;-65
2023/05/15 07:35:42;;;;;;;34.17;24.05;;;;;;;14.93;58.05;101449.69;5056608;28;20198;-67
2023/05/15 07:38:10;;;;;;;35.35;24.85;;;;;;;14.94;57.53;101452.16;5055146;28;20427;-64
2023/05/15 07:40:38;;;;;;;33.78;25.65;;;;;;;14.96;57.93;101452.75;5057650;28;20049;-66
2023/05/15 07:43:06;;;;;;;31.73;24.10;;;;;;;14.97;57.91;101448.97;5053976;28;20041;-64
2023/05/15 07:45:34;;;;;;;32.00;23.48;;;;;;;14.98;57.53;101441.69;5048388;28;20056;-64
2023/05/15 07:48:15;;;;;;;32.55;24.80;;;;;;;15.00;57.51;101447.69;5056553;28;20057;-65
2023/05/15 07:50:45;;;;;;;29.15;22.98;;;;;;;15.00;57.77;101441.44;5043945;28;20063;-65
2023/05/15 07:53:13;;;;;;;31.33;23.83;;;;;;;15.02;57.49;101444.75;5048693;28;20041;-65
2023/05/15 07:55:41;;;;;;;31.30;23.20;;;;;;;15.01;57.77;101435.78;5046136;28;20045;-65
2023/05/15 07:58:09;;;;;;;28.92;22.50;;;;;;;15.05;57.68;101438.84;5043627;28;20049;-65
2023/05/15 08:00:37;;;;;;;24.20;21.08;;;;;;;15.06;57.67;101435.91;5049780;28;20060;-65
2023/05/15 08:03:04;;;;;;;29.13;21.17;;;;;;;15.08;57.47;101436.50;5046227;28;20064;-65
2023/05/15 08:05:34;;;;;;;28.02;20.33;;;;;;;15.11;57.58;101440.59;5048632;28;20578;-65
2023/05/15 08:08:02;;;;;;;28.35;21.40;;;;;;;15.07;57.82;101428.59;5056005;28;20057;-65
2023/05/15 08:10:30;;;;;;;28.23;21.23;;;;;;;15.13;57.86;101438.50;5049139;28;20144;-63
2023/05/15 08:12:57;;;;;;;24.50;19.05;;;;;;;15.14;57.74;101434.72;5053623;28;20195;-65
2023/05/15 08:15:25;;;;;;;25.65;19.70;;;;;;;15.14;57.95;101438.25;5045607;28;20159;-64
2023/05/15 08:17:53;;;;;;;25.08;19.73;;;;;;;15.17;57.84;101431.53;5052640;28;20072;-63
2023/05/15 08:20:21;;;;;;;24.60;18.98;;;;;;;15.16;57.83;101428.00;5056024;28;20071;-64
2023/05/15 08:22:50;;;;;;;24.17;18.15;;;;;;;15.17;57.79;101423.41;5053593;28;20045;-64
2023/05/15 08:25:18;;;;;;;26.05;19.42;;;;;;;15.20;57.80;101431.06;5044757;28;20045;-65
2023/05/15 08:27:46;;;;;;;22.63;17.60;;;;;;;15.21;57.81;101427.28;5056416;28;20074;-65
2023/05/15 08:30:14;;;;;;;25.02;17.55;;;;;;;15.22;57.71;101429.75;5056989;28;20112;-64
2023/05/15 08:32:44;;;;;;;22.75;16.80;;;;;;;15.27;58.00;101431.75;5043774;28;20084;-64
2023/05/15 08:35:12;;;;;;;21.38;17.05;;;;;;;15.30;58.21;101434.00;5046511;28;20068;-65
2023/05/15 08:37:40;;;;;;;19.30;15.73;;;;;;;15.33;58.05;101432.69;5049819;28;20128;-65
2023/05/15 08:40:10;;;;;;;20.67;15.38;;;;;;;15.37;58.20;101426.56;5039813;28;20517;-65
2023/05/15 08:42:44;;;;;;;19.70;15.98;;;;;;;15.40;58.30;101425.25;5050119;28;20040;-65
2023/05/15 08:45:13;;;;;;;22.17;16.27;;;;;;;15.41;58.13;101426.91;5045133;28;20045;-65
2023/05/15 08:47:42;;;;;;;23.25;15.32;;;;;;;15.44;58.03;101426.41;5047929;28;20056;-64
2023/05/15 08:50:13;;;;;;;17.70;14.73;;;;;;;15.46;58.33;101416.16;5052720;28;20060;-66
2023/05/15 08:52:42;;;;;;;19.83;14.25;;;;;;;15.49;58.38;101418.41;5052680;28;20048;-65
2023/05/15 08:55:13;;;;;;;21.13;14.23;;;;;;;15.51;58.61;101417.09;5043673;28;20132;-65
2023/05/15 08:57:41;;;;;;;20.40;15.38;;;;;;;15.53;58.41;101411.44;5039999;28;20107;-64
2023/05/15 09:00:13;;;;;;;18.13;14.20;;;;;;;15.54;58.12;101413.06;5046876;28;20041;-64
2023/05/15 09:02:42;;;;;;;18.58;13.70;;;;;;;15.55;57.96;101414.72;5046640;28;20073;-64
2023/05/15 09:05:10;;;;;;;21.55;14.82;;;;;;;15.56;57.83;101409.06;5046890;28;20119;-63
2023/05/15 09:07:39;;;;;;;21.70;16.08;;;;;;;15.56;57.76;101422.59;5055370;28;20067;-64
2023/05/15 09:10:09;;;;;;;20.25;16.63;;;;;;;15.57;57.54;101426.16;5058387;28;20053;-63
2023/05/15 09:12:42;;;;;;;21.30;17.25;;;;;;;15.56;57.49;101417.19;5046661;28;20094;-61
2023/05/15 09:15:13;;;;;;;18.52;15.18;;;;;;;15.57;57.67;101426.16;5056742;28;20105;-62
2023/05/15 09:17:41;;;;;;;22.63;14.75;;;;;;;15.59;58.02;101424.06;5055415;28;20136;-60
2023/05/15 09:20:25;;;;;;;23.35;15.25;;;;;;;15.61;58.23;101420.00;5060692;28;20509;-65
2023/05/15 09:22:55;;;;;;;19.45;14.60;;;;;;;15.64;58.12;101415.97;5044088;28;20053;-65
2023/05/15 09:25:39;;;;;;;20.85;15.35;;;;;;;15.58;58.13;101398.00;5052269;28;20119;-62
2023/05/15 09:28:10;;;;;;;18.08;14.63;;;;;;;15.69;58.27;101417.97;5061510;28;20452;-64
2023/05/15 09:30:38;;;;;;;19.77;14.65;;;;;;;15.69;58.08;101413.38;5059249;28;20096;-63
2023/05/15 09:33:07;;;;;;;21.05;15.60;;;;;;;15.71;58.10;101416.66;5055632;28;20161;-64
2023/05/15 09:35:36;;;;;;;20.23;14.80;;;;;;;15.73;58.01;101417.25;5050706;28;20068;-64
2023/05/15 09:38:09;;;;;;;21.13;14.82;;;;;;;15.75;58.17;101417.81;5063753;28;20053;-64
2023/05/15 09:40:38;;;;;;;22.75;14.25;;;;;;;15.75;57.93;101417.81;5056394;28;20048;-64
2023/05/15 09:43:05;;;;;;;18.95;15.40;;;;;;;15.76;57.58;101421.34;5049474;28;20060;-64
2023/05/15 09:45:36;;;;;;;20.48;15.48;;;;;;;15.77;57.43;101423.00;5053696;28;20041;-64
2023/05/15 09:48:05;;;;;;;21.05;14.48;;;;;;;15.77;57.45;101414.88;5049418;28;20076;-64
2023/05/15 09:50:35;;;;;;;19.08;15.60;;;;;;;15.79;57.33;101415.47;5051580;28;20053;-64
2023/05/15 09:53:04;;;;;;;25.25;17.15;;;;;;;15.72;57.07;101412.91;5046805;28;20242;-60
2023/05/15 09:55:32;;;;;;;18.48;16.00;;;;;;;15.80;57.02;101420.63;5053217;28;20560;-64
2023/05/15 09:58:09;;;;;;;23.52;17.30;;;;;;;15.79;56.95;101419.00;5062878;28;20076;-64
2023/05/15 10:00:40;;;;;;;20.92;16.27;;;;;;;15.80;56.71;101427.94;5060464;28;20049;-64
2023/05/15 10:03:17;;;;;;;21.10;16.92;;;;;;;15.79;56.85;101416.28;5054975;28;20045;-64
2023/05/15 10:05:45;;;;;;;24.02;16.45;;;;;;;15.80;57.08;101419.81;5060970;28;20048;-63
2023/05/15 10:08:14;;;;;;;21.55;15.15;;;;;;;15.80;56.95;101419.81;5062215;28;20083;-57
2023/05/15 10:10:43;;;;;;;23.52;17.33;;;;;;;15.81;56.94;101425.00;5060961;28;20052;-64
2023/05/15 10:13:11;;;;;;;24.92;17.50;;;;;;;15.80;56.86;101425.22;5060414;28;20057;-62
2023/05/15 10:15:41;;;;;;;19.75;16.63;;;;;;;15.79;57.00;101427.13;5058854;28;20049;-64
2023/05/15 10:18:11;;;;;;;23.90;16.70;;;;;;;15.81;57.08;101433.13;5058554;28;20053;-63
2023/05/15 10:20:39;;;;;;;22.33;16.40;;;;;;;15.82;57.30;101418.50;5060624;28;20064;-64
2023/05/15 10:23:10;;;;;;;20.42;15.98;;;;;;;15.83;57.25;101425.56;5056621;28;20129;-64
2023/05/15 10:25:45;;;;;;;21.13;16.25;;;;;;;15.86;57.44;101430.50;5048603;28;20068;-64
2023/05/15 10:28:15;;;;;;;18.92;15.75;;;;;;;15.89;57.34;101434.63;5052789;28;20072;-65
2023/05/15 10:30:46;;;;;;;23.58;15.80;;;;;;;15.88;57.44;101433.78;5055105;28;20041;-63
2023/05/15 10:33:15;;;;;;;22.85;17.10;;;;;;;15.88;57.53;101427.56;5056619;28;20051;-64
2023/05/15 10:35:44;;;;;;;20.90;15.35;;;;;;;15.89;57.52;101431.91;5059038;28;20465;-64
2023/05/15 10:38:13;;;;;;;20.17;15.88;;;;;;;15.90;57.59;101431.66;5060240;28;20136;-64
2023/05/15 10:40:41;;;;;;;20.27;15.13;;;;;;;15.84;57.56;101419.09;5058053;28;20048;-67
2023/05/15 10:43:10;;;;;;;22.17;15.50;;;;;;;15.94;57.94;101432.00;5052548;28;20108;-65
2023/05/15 10:45:39;;;;;;;18.73;15.25;;;;;;;15.94;57.79;101429.28;5051015;28;20045;-64
2023/05/15 10:48:11;;;;;;;18.90;14.13;;;;;;;15.97;57.88;101422.56;5057463;28;20048;-63
2023/05/15 10:50:39;;;;;;;20.23;14.35;;;;;;;15.99;57.91;101426.69;5049306;28;20053;-65
2023/05/15 10:53:09;;;;;;;22.92;16.02;;;;;;;16.00;57.87;101422.06;5051365;28;20132;-65
2023/05/15 10:55:37;;;;;;;19.85;16.27;;;;;;;16.01;57.93;101426.44;5055075;28;20063;-65
2023/05/15 10:58:09;;;;;;;20.88;14.43;;;;;;;16.00;57.87;101427.50;5056410;28;20052;-66
2023/05/15 11:00:42;;;;;;;21.38;15.15;;;;;;;15.99;57.59;101423.97;5054786;28;20069;-62
2023/05/15 11:03:15;;;;;;;20.00;15.15;;;;;;;16.00;57.80;101424.78;5056378;28;20381;-65
2023/05/15 11:06:09;;;;;;;18.90;12.90;;;;;;;16.00;57.79;101424.78;5055353;28;20041;-64
2023/05/15 11:08:38;;;;;;;19.88;14.65;;;;;;;16.01;57.80;101426.44;5062326;28;20072;-65
2023/05/15 11:11:55;;;;;;;20.63;15.60;;;;;;;16.00;57.45;101427.50;5054470;28;20053;-64
2023/05/15 11:14:26;;;;;;;21.88;15.43;;;;;;;15.99;57.51;101429.38;4989276;28;20038;-65
2023/05/15 11:17:02;;;;;;;22.48;14.93;;;;;;;15.99;57.65;101425.84;4982736;28;20042;-64
2023/05/15 11:19:37;;;;;;;22.17;15.70;;;;;;;15.97;57.76;101428.81;4988166;28;20105;-61